createdAt,value
2017-11-24T00:00:11.551Z,2.63
2017-11-24T00:02:39.036Z,2.90
2017-11-24T00:05:06.577Z,2.37
2017-11-24T00:07:34.027Z,2.50
2017-11-24T00:10:01.505Z,2.73
2017-11-24T00:12:28.954Z,2.83
2017-11-24T00:14:57.348Z,2.50
2017-11-24T00:17:24.840Z,2.37
2017-11-24T00:19:52.299Z,3.53
2017-11-24T00:22:19.823Z,2.53
2017-11-24T00:24:47.318Z,2.30
2017-11-24T00:27:14.799Z,3.50
2017-11-24T00:29:42.255Z,3.13
2017-11-24T00:32:09.702Z,2.77
2017-11-24T00:34:37.178Z,4.80
2017-11-24T00:37:05.039Z,3.20
2017-11-24T00:39:33.279Z,3.50
2017-11-24T00:42:00.738Z,2.77
2017-11-24T00:44:28.212Z,3.17
2017-11-24T00:46:55.685Z,3.03
2017-11-24T00:49:23.223Z,3.20
2017-11-24T00:51:50.692Z,3.13
2017-11-24T00:54:18.179Z,3.13
2017-11-24T00:56:45.740Z,2.55
2017-11-24T00:59:13.186Z,3.57
2017-11-24T01:01:41.434Z,3.03
2017-11-24T01:04:08.898Z,2.80
2017-11-24T01:06:36.345Z,2.63
2017-11-24T01:09:03.815Z,3.20
2017-11-24T01:11:31.270Z,3.57
2017-11-24T01:13:58.758Z,3.50
2017-11-24T01:16:27.042Z,3.97
2017-11-24T01:18:55.274Z,3.53
2017-11-24T01:21:23.499Z,4.03
2017-11-24T01:23:50.946Z,4.37
2017-11-24T01:26:18.531Z,4.70
2017-11-24T01:28:46.043Z,4.70
2017-11-24T01:31:13.502Z,3.73
2017-11-24T01:33:40.983Z,5.03
2017-11-24T01:36:09.234Z,5.60
2017-11-24T01:38:36.719Z,6.43
2017-11-24T01:41:04.175Z,7.10
2017-11-24T01:43:32.431Z,8.03
2017-11-24T01:45:59.878Z,5.07
2017-11-24T01:48:27.345Z,5.10
2017-11-24T01:50:54.814Z,5.00
2017-11-24T01:53:22.286Z,5.00
2017-11-24T01:55:49.872Z,4.73
2017-11-24T01:58:17.350Z,4.17
2017-11-24T02:00:44.855Z,4.03
2017-11-24T02:03:12.307Z,3.70
2017-11-24T02:05:40.535Z,3.33
2017-11-24T02:08:08.012Z,3.03
2017-11-24T02:10:35.478Z,4.20
2017-11-24T02:13:02.954Z,3.30
2017-11-24T02:15:30.402Z,3.73
2017-11-24T02:17:57.894Z,3.80
2017-11-24T02:20:25.390Z,3.80
2017-11-24T02:22:52.843Z,4.97
2017-11-24T02:25:20.354Z,4.00
2017-11-24T02:27:48.627Z,5.07
2017-11-24T02:30:16.864Z,5.53
2017-11-24T02:32:44.341Z,3.85
2017-11-24T02:35:11.843Z,4.60
2017-11-24T02:37:39.302Z,4.20
2017-11-24T02:40:06.788Z,4.47
2017-11-24T02:42:34.267Z,4.33
2017-11-24T02:45:01.770Z,4.67
2017-11-24T02:47:29.243Z,2.97
2017-11-24T02:49:56.695Z,4.37
2017-11-24T02:52:24.181Z,3.60
2017-11-24T02:54:52.437Z,3.70
2017-11-24T02:57:19.921Z,4.13
2017-11-24T02:59:47.398Z,3.83
2017-11-24T03:02:14.881Z,3.80
2017-11-24T03:04:43.111Z,3.40
2017-11-24T03:07:10.595Z,2.37
2017-11-24T03:09:38.082Z,2.53
2017-11-24T03:12:06.312Z,3.73
2017-11-24T03:14:33.814Z,2.57
2017-11-24T03:17:02.090Z,2.37
2017-11-24T03:19:31.279Z,3.83
2017-11-24T03:21:58.737Z,2.97
2017-11-24T03:24:26.978Z,3.37
2017-11-24T03:26:54.487Z,3.03
2017-11-24T03:29:22.722Z,3.53
2017-11-24T03:31:50.180Z,4.10
2017-11-24T03:34:17.667Z,4.03
2017-11-24T03:36:45.134Z,3.70
2017-11-24T03:39:12.614Z,3.87
2017-11-24T03:41:40.093Z,3.23
2017-11-24T03:44:07.590Z,3.60
2017-11-24T03:46:35.920Z,3.23
2017-11-24T03:49:03.431Z,3.73
2017-11-24T03:51:30.959Z,4.80
2017-11-24T03:53:58.417Z,3.73
2017-11-24T03:56:25.903Z,4.77
2017-11-24T03:58:53.358Z,3.80
2017-11-24T04:01:20.857Z,4.07
2017-11-24T04:03:48.318Z,4.20
2017-11-24T04:06:15.801Z,3.93
2017-11-24T04:08:43.264Z,3.73
2017-11-24T04:11:10.751Z,4.27
2017-11-24T04:13:38.247Z,4.13
2017-11-24T04:16:05.782Z,5.00
2017-11-24T04:18:34.031Z,3.50
2017-11-24T04:21:01.515Z,4.50
2017-11-24T04:23:28.997Z,4.27
2017-11-24T04:25:56.472Z,4.57
2017-11-24T04:28:23.954Z,4.37
2017-11-24T04:30:51.422Z,4.40
2017-11-24T04:33:18.918Z,4.40
2017-11-24T04:35:46.380Z,4.53
2017-11-24T04:38:13.958Z,4.03
2017-11-24T04:40:41.425Z,4.20
2017-11-24T04:43:08.915Z,4.87
2017-11-24T04:45:36.384Z,2.80
2017-11-24T04:48:03.830Z,3.50
2017-11-24T04:50:31.327Z,2.60
2017-11-24T04:52:59.546Z,3.07
2017-11-24T04:55:27.010Z,2.80
2017-11-24T04:57:54.507Z,3.90
2017-11-24T05:00:21.952Z,4.03
2017-11-24T05:02:49.409Z,4.40
2017-11-24T05:05:16.887Z,3.27
2017-11-24T05:07:44.350Z,3.93
2017-11-24T05:10:11.834Z,4.40
2017-11-24T05:12:39.319Z,5.33
2017-11-24T05:15:06.786Z,5.73
2017-11-24T05:17:34.268Z,7.07
2017-11-24T05:20:01.732Z,9.60
2017-11-24T05:22:29.185Z,9.97
2017-11-24T05:24:56.658Z,8.93
2017-11-24T05:27:24.307Z,8.97
2017-11-24T05:29:51.754Z,9.63
2017-11-24T05:32:19.859Z,9.57
2017-11-24T05:34:47.315Z,9.30
2017-11-24T05:37:15.571Z,8.57
2017-11-24T05:39:43.042Z,8.97
2017-11-24T05:42:10.540Z,8.80
2017-11-24T05:44:37.995Z,8.40
2017-11-24T05:47:05.478Z,9.67
2017-11-24T05:49:33.050Z,9.67
2017-11-24T05:52:00.524Z,9.63
2017-11-24T05:54:27.974Z,10.20
2017-11-24T05:56:55.483Z,10.00
2017-11-24T05:59:22.936Z,10.53
2017-11-24T06:01:50.393Z,11.30
2017-11-24T06:04:17.878Z,11.00
2017-11-24T06:06:45.390Z,12.20
2017-11-24T06:09:13.612Z,10.13
2017-11-24T06:11:41.086Z,9.63
2017-11-24T06:14:08.551Z,9.63
2017-11-24T06:16:36.037Z,10.57
2017-11-24T06:19:04.267Z,9.23
2017-11-24T06:21:31.766Z,9.90
2017-11-24T06:23:59.980Z,10.33
2017-11-24T06:26:27.440Z,11.10
2017-11-24T06:28:54.931Z,10.67
2017-11-24T06:31:22.403Z,10.03
2017-11-24T06:33:49.875Z,9.90
2017-11-24T06:36:18.160Z,12.17
2017-11-24T06:38:46.565Z,10.47
2017-11-24T06:41:14.065Z,10.13
2017-11-24T06:43:41.514Z,9.27
2017-11-24T06:46:08.998Z,10.23
2017-11-24T06:48:36.455Z,10.27
2017-11-24T06:51:03.927Z,9.80
2017-11-24T06:53:32.147Z,8.93
2017-11-24T06:55:59.638Z,12.17
2017-11-24T06:58:27.107Z,11.50
2017-11-24T07:00:54.582Z,11.50
2017-11-24T07:03:22.814Z,11.77
2017-11-24T07:05:50.364Z,8.60
2017-11-24T07:08:17.831Z,10.47
2017-11-24T07:10:45.292Z,10.80
2017-11-24T07:13:12.776Z,13.17
2017-11-24T07:15:40.234Z,12.63
2017-11-24T07:18:07.706Z,12.73
2017-11-24T07:20:35.175Z,11.87
2017-11-24T07:23:02.658Z,11.23
2017-11-24T07:25:30.117Z,12.03
2017-11-24T07:27:57.576Z,14.00
2017-11-24T07:30:25.059Z,10.90
2017-11-24T07:32:52.519Z,11.87
2017-11-24T07:35:20.007Z,11.10
2017-11-24T07:37:48.258Z,11.10
2017-11-24T07:40:15.738Z,12.40
2017-11-24T07:42:43.972Z,11.20
2017-11-24T07:45:11.598Z,12.93
2017-11-24T07:47:39.050Z,11.40
2017-11-24T07:50:08.023Z,12.80
2017-11-24T07:52:35.484Z,14.07
2017-11-24T07:55:02.967Z,11.73
2017-11-24T07:57:30.426Z,11.40
2017-11-24T07:59:57.914Z,11.30
2017-11-24T08:02:25.392Z,12.43
2017-11-24T08:04:52.870Z,10.60
2017-11-24T08:07:20.338Z,10.30
2017-11-24T08:09:47.817Z,10.50
2017-11-24T08:12:15.311Z,11.90
2017-11-24T08:14:42.771Z,13.27
2017-11-24T08:17:10.252Z,11.67
2017-11-24T08:19:37.811Z,13.17
2017-11-24T08:22:05.270Z,14.37
2017-11-24T08:24:32.755Z,11.80
2017-11-24T08:27:00.338Z,11.70
2017-11-24T08:29:27.816Z,9.50
2017-11-24T08:31:55.291Z,10.50
2017-11-24T08:34:22.780Z,10.63
2017-11-24T08:36:50.284Z,8.87
2017-11-24T08:39:17.754Z,8.97
2017-11-24T08:41:45.242Z,10.73
2017-11-24T08:44:12.703Z,11.40
2017-11-24T08:49:46.825Z,12.30
2017-11-24T08:52:14.299Z,11.90
2017-11-24T08:54:41.755Z,12.10
2017-11-24T08:57:09.240Z,14.00
2017-11-24T08:59:36.699Z,9.83
2017-11-24T09:02:04.186Z,13.40
2017-11-24T09:04:31.644Z,13.67
2017-11-24T09:06:59.102Z,12.00
2017-11-24T09:09:26.586Z,11.27
2017-11-24T09:11:54.078Z,10.70
2017-11-24T09:14:22.298Z,14.20
2017-11-24T09:16:49.813Z,8.50
2017-11-24T09:19:18.058Z,8.00
2017-11-24T09:21:45.540Z,7.60
2017-11-24T09:24:13.002Z,8.17
2017-11-24T09:26:40.500Z,7.53
2017-11-24T09:29:07.966Z,7.10
2017-11-24T09:31:35.485Z,8.30
2017-11-24T09:34:03.719Z,7.60
2017-11-24T09:36:31.203Z,7.00
2017-11-24T09:38:58.678Z,8.67
2017-11-24T09:41:26.939Z,7.20
2017-11-24T09:43:54.419Z,11.17
2017-11-24T09:46:22.706Z,10.77
2017-11-24T09:48:50.198Z,7.70
2017-11-24T09:51:17.660Z,9.53
2017-11-24T09:53:45.132Z,9.03
2017-11-24T09:56:12.603Z,10.43
2017-11-24T09:58:40.983Z,9.63
2017-11-24T10:01:08.466Z,9.00
2017-11-24T10:03:36.698Z,11.07
2017-11-24T10:06:04.184Z,7.37
2017-11-24T10:08:31.645Z,8.67
2017-11-24T10:10:59.913Z,5.00
2017-11-24T10:13:27.380Z,4.43
2017-11-24T10:15:55.708Z,3.77
2017-11-24T10:18:23.171Z,2.67
2017-11-24T10:20:56.232Z,3.77
2017-11-24T10:23:23.707Z,4.13
2017-11-24T10:25:51.203Z,4.50
2017-11-24T10:28:18.691Z,4.53
2017-11-24T10:30:46.922Z,4.13
2017-11-24T10:33:14.376Z,4.40
2017-11-24T10:35:41.871Z,4.87
2017-11-24T10:38:09.373Z,4.63
2017-11-24T10:40:36.839Z,5.83
2017-11-24T10:43:04.324Z,4.80
2017-11-24T10:45:31.792Z,5.13
2017-11-24T10:47:59.267Z,4.33
2017-11-24T10:50:26.730Z,4.73
2017-11-24T10:52:54.219Z,4.53
2017-11-24T10:55:21.689Z,4.63
2017-11-24T10:57:49.163Z,4.87
2017-11-24T11:00:16.663Z,5.37
2017-11-24T11:02:44.894Z,5.87
2017-11-24T11:05:12.371Z,6.00
2017-11-24T11:07:39.850Z,5.60
2017-11-24T11:10:08.086Z,4.07
2017-11-24T11:12:35.583Z,4.63
2017-11-24T11:15:03.050Z,5.47
2017-11-24T11:17:31.278Z,6.17
2017-11-24T11:19:58.759Z,7.50
2017-11-24T11:22:26.222Z,6.40
2017-11-24T11:24:53.683Z,6.30
2017-11-24T11:27:21.198Z,7.13
2017-11-24T11:29:48.691Z,5.70
2017-11-24T11:32:16.154Z,9.00
2017-11-24T11:34:43.623Z,7.50
2017-11-24T11:37:12.051Z,5.50
2017-11-24T11:39:39.520Z,7.33
2017-11-24T11:42:07.014Z,6.50
2017-11-24T11:44:34.479Z,7.17
2017-11-24T11:47:01.974Z,7.67
2017-11-24T11:49:29.471Z,6.10
2017-11-24T11:51:56.935Z,6.60
2017-11-24T11:54:24.402Z,7.13
2017-11-24T11:56:51.894Z,7.20
2017-11-24T11:59:20.154Z,7.10
2017-11-24T12:01:48.391Z,7.20
2017-11-24T12:04:15.875Z,6.30
2017-11-24T12:06:43.377Z,6.10
2017-11-24T12:09:10.874Z,6.63
2017-11-24T12:11:38.339Z,6.70
2017-11-24T12:14:05.819Z,6.60
2017-11-24T12:16:33.303Z,7.40
2017-11-24T12:19:00.799Z,7.40
2017-11-24T12:21:28.275Z,5.90
2017-11-24T12:23:55.730Z,5.40
2017-11-24T12:26:23.233Z,4.93
2017-11-24T12:28:51.462Z,4.60
2017-11-24T12:31:18.999Z,6.63
2017-11-24T12:33:46.498Z,6.50
2017-11-24T12:36:13.951Z,6.53
2017-11-24T12:38:41.411Z,5.80
2017-11-24T12:41:08.910Z,6.20
2017-11-24T12:43:36.377Z,5.10
2017-11-24T12:46:03.875Z,3.90
2017-11-24T12:48:31.344Z,4.70
2017-11-24T12:50:58.827Z,5.10
2017-11-24T12:53:27.055Z,4.80
2017-11-24T12:55:54.527Z,3.60
2017-11-24T12:58:22.776Z,5.67
2017-11-24T13:00:50.271Z,6.40
2017-11-24T13:03:17.742Z,5.53
2017-11-24T13:05:45.207Z,5.50
2017-11-24T13:08:14.381Z,5.80
2017-11-24T13:10:41.864Z,5.30
2017-11-24T13:13:09.329Z,4.20
2017-11-24T13:15:36.812Z,5.50
2017-11-24T13:18:04.315Z,5.47
2017-11-24T13:20:31.786Z,4.33
2017-11-24T13:22:59.279Z,4.10
2017-11-24T13:25:26.735Z,3.57
2017-11-24T13:27:54.191Z,4.40
2017-11-24T13:30:21.671Z,3.13
2017-11-24T13:32:49.161Z,4.13
2017-11-24T13:35:17.595Z,4.20
2017-11-24T13:37:45.048Z,3.77
2017-11-24T13:40:12.522Z,4.30
2017-11-24T13:42:40.006Z,3.50
2017-11-24T13:45:07.459Z,4.70
2017-11-24T13:47:35.090Z,5.20
2017-11-24T13:50:02.554Z,6.37
2017-11-24T13:52:30.023Z,5.90
2017-11-24T13:54:57.502Z,4.70
2017-11-24T13:57:24.999Z,3.37
2017-11-24T13:59:53.243Z,3.50
2017-11-24T14:02:20.719Z,3.07
2017-11-24T14:04:48.184Z,2.30
2017-11-24T14:07:16.406Z,3.00
2017-11-24T14:09:44.659Z,2.62
2017-11-24T14:12:12.899Z,2.90
2017-11-24T14:14:40.391Z,2.63
2017-11-24T14:17:07.851Z,2.90
2017-11-24T14:19:35.306Z,3.23
2017-11-24T14:22:02.787Z,3.40
2017-11-24T14:24:30.283Z,4.77
2017-11-24T14:26:57.758Z,4.77
2017-11-24T14:29:25.231Z,4.50
2017-11-24T14:31:53.447Z,4.37
2017-11-24T14:34:20.956Z,4.60
2017-11-24T14:36:48.403Z,4.70
2017-11-24T14:39:15.886Z,5.10
2017-11-24T14:41:44.143Z,4.80
2017-11-24T14:44:11.841Z,4.43
2017-11-24T14:46:39.340Z,5.60
2017-11-24T14:49:06.800Z,5.63
2017-11-24T14:51:34.269Z,5.40
2017-11-24T14:54:01.756Z,5.40
2017-11-24T14:56:29.323Z,5.77
2017-11-24T14:58:57.551Z,5.60
2017-11-24T15:01:25.043Z,5.97
2017-11-24T15:03:53.266Z,5.93
2017-11-24T15:06:20.747Z,5.73
2017-11-24T15:08:48.243Z,8.00
2017-11-24T15:11:16.538Z,6.63
2017-11-24T15:13:44.034Z,6.90
2017-11-24T15:16:11.499Z,8.43
2017-11-24T15:18:38.955Z,7.07
2017-11-24T15:21:06.453Z,7.30
2017-11-24T15:23:33.915Z,7.47
2017-11-24T15:26:02.144Z,6.80
2017-11-24T15:28:29.630Z,7.60
2017-11-24T15:30:57.107Z,6.80
2017-11-24T15:33:24.560Z,6.90
2017-11-24T15:35:52.815Z,6.53
2017-11-24T15:38:20.282Z,7.50
2017-11-24T15:40:47.743Z,6.80
2017-11-24T15:43:16.929Z,7.27
2017-11-24T15:45:44.414Z,7.63
2017-11-24T15:48:11.888Z,6.67
2017-11-24T15:50:39.370Z,7.93
2017-11-24T15:53:06.838Z,6.70
2017-11-24T15:55:34.331Z,7.07
2017-11-24T15:58:01.816Z,7.73
2017-11-24T16:00:30.035Z,7.63
2017-11-24T16:02:57.523Z,8.00
2017-11-24T16:05:24.988Z,8.00
2017-11-24T16:07:53.252Z,9.27
2017-11-24T16:10:20.715Z,8.60
2017-11-24T16:12:48.204Z,8.07
2017-11-24T16:15:17.371Z,8.33
2017-11-24T16:17:44.870Z,7.60
2017-11-24T16:20:12.339Z,8.70
2017-11-24T16:22:39.795Z,9.00
2017-11-24T16:25:07.279Z,9.70
2017-11-24T16:27:34.759Z,8.00
2017-11-24T16:30:02.251Z,8.53
2017-11-24T16:32:30.470Z,9.17
2017-11-24T16:34:57.964Z,8.47
2017-11-24T16:37:26.196Z,7.73
2017-11-24T16:39:53.671Z,8.10
2017-11-24T16:42:21.150Z,8.20
2017-11-24T16:44:48.603Z,8.40
2017-11-24T16:47:16.081Z,8.13
2017-11-24T16:49:44.803Z,8.80
2017-11-24T16:52:12.256Z,8.57
2017-11-24T16:54:39.751Z,8.73
2017-11-24T16:57:07.465Z,8.13
2017-11-24T16:59:35.122Z,8.37
2017-11-24T17:02:02.628Z,9.20
2017-11-24T17:04:30.134Z,9.13
2017-11-24T17:06:58.354Z,8.60
2017-11-24T17:09:25.799Z,8.70
2017-11-24T17:11:53.271Z,9.07
2017-11-24T17:14:20.723Z,9.10
2017-11-24T17:16:49.807Z,10.50
2017-11-24T17:19:17.271Z,8.57
2017-11-24T17:21:44.779Z,7.97
2017-11-24T17:24:12.268Z,9.77
2017-11-24T17:26:39.880Z,9.10
2017-11-24T17:29:07.351Z,9.20
2017-11-24T17:31:34.855Z,9.63
2017-11-24T17:34:02.322Z,9.40
2017-11-24T17:36:29.977Z,10.05
2017-11-24T17:38:58.684Z,9.88
2017-11-24T17:41:27.009Z,9.57
2017-11-24T17:43:55.315Z,11.20
2017-11-24T17:46:22.789Z,13.33
2017-11-24T17:48:50.652Z,15.33
2017-11-24T17:51:19.270Z,14.70
2017-11-24T17:53:46.780Z,13.63
2017-11-24T17:56:14.255Z,13.50
2017-11-24T17:58:41.944Z,12.10
2017-11-24T18:01:09.407Z,12.40
2017-11-24T18:03:36.860Z,12.60
2017-11-24T18:06:04.338Z,12.50
2017-11-24T18:08:31.953Z,12.80
2017-11-24T18:10:59.656Z,11.77
2017-11-24T18:13:27.129Z,12.27
2017-11-24T18:15:54.825Z,11.30
2017-11-24T18:18:22.540Z,11.57
2017-11-24T18:20:50.029Z,12.37
2017-11-24T18:23:18.267Z,12.70
2017-11-24T18:25:45.725Z,12.27
2017-11-24T18:28:13.441Z,12.90
2017-11-24T18:30:40.954Z,11.37
2017-11-24T18:33:08.439Z,14.50
2017-11-24T18:35:36.741Z,14.00
2017-11-24T18:38:04.246Z,14.60
2017-11-24T18:40:31.863Z,14.52
2017-11-24T18:42:59.568Z,13.00
2017-11-24T18:45:27.082Z,15.10
2017-11-24T18:47:54.889Z,15.07
2017-11-24T18:50:22.345Z,15.63
2017-11-24T18:52:50.080Z,15.13
2017-11-24T18:55:17.532Z,14.73
2017-11-24T18:57:44.998Z,16.10
2017-11-24T19:00:12.490Z,14.77
2017-11-24T19:02:39.938Z,15.30
2017-11-24T19:05:07.412Z,13.90
2017-11-24T19:07:34.888Z,15.13
2017-11-24T19:10:02.378Z,16.37
2017-11-24T19:12:29.840Z,16.43
2017-11-24T19:14:57.539Z,16.10
2017-11-24T19:17:25.852Z,18.00
2017-11-24T19:19:54.139Z,16.27
2017-11-24T19:22:22.366Z,17.10
2017-11-24T19:24:50.888Z,15.90
2017-11-24T19:27:19.184Z,16.17
2017-11-24T19:29:47.434Z,15.50
2017-11-24T19:32:14.936Z,16.47
2017-11-24T19:34:42.403Z,16.37
2017-11-24T19:37:09.939Z,16.27
2017-11-24T19:39:37.458Z,15.30
2017-11-24T19:42:04.935Z,15.80
2017-11-24T19:44:32.424Z,14.33
2017-11-24T19:46:59.883Z,16.13
2017-11-24T19:49:27.366Z,16.27
2017-11-24T19:51:54.823Z,16.00
2017-11-24T19:54:22.304Z,16.43
2017-11-24T19:56:49.764Z,17.10
2017-11-24T19:59:17.243Z,16.30
2017-11-24T20:01:44.704Z,18.63
2017-11-24T20:04:12.179Z,18.20
2017-11-24T20:06:40.467Z,19.37
2017-11-24T20:09:07.930Z,18.93
2017-11-24T20:11:35.403Z,18.90
2017-11-24T20:14:02.883Z,19.87
2017-11-24T20:16:30.702Z,17.10
2017-11-24T20:18:58.472Z,18.73
2017-11-24T20:21:25.969Z,18.47
2017-11-24T20:23:53.463Z,19.17
2017-11-24T20:26:21.772Z,18.97
2017-11-24T20:28:49.357Z,19.40
2017-11-24T20:31:17.031Z,19.60
2017-11-24T20:33:46.714Z,18.90
2017-11-24T20:36:14.282Z,18.70
2017-11-24T20:38:41.742Z,18.30
2017-11-24T20:41:09.482Z,18.87
2017-11-24T20:43:36.973Z,17.90
2017-11-24T20:46:04.709Z,20.53
2017-11-24T20:48:32.181Z,18.00
2017-11-24T20:50:59.658Z,19.20
2017-11-24T20:53:27.158Z,18.27
2017-11-24T20:55:55.413Z,18.30
2017-11-24T20:58:22.905Z,19.07
2017-11-24T21:00:50.405Z,21.97
2017-11-24T21:03:17.886Z,23.50
2017-11-24T21:05:45.400Z,21.60
2017-11-24T21:08:12.945Z,20.57
2017-11-24T21:10:40.513Z,22.70
2017-11-24T21:13:08.148Z,22.50
2017-11-24T21:15:36.382Z,21.30
2017-11-24T21:18:03.878Z,21.92
2017-11-24T21:20:31.331Z,19.17
2017-11-24T21:22:58.822Z,20.63
2017-11-24T21:25:27.042Z,19.70
2017-11-24T21:27:54.540Z,20.67
2017-11-24T21:30:22.019Z,20.53
2017-11-24T21:32:49.474Z,19.93
2017-11-24T21:35:16.960Z,23.00
2017-11-24T21:37:44.412Z,21.20
2017-11-24T21:40:11.891Z,22.50
2017-11-24T21:42:39.376Z,24.83
2017-11-24T21:45:07.658Z,22.60
2017-11-24T21:47:35.154Z,23.77
2017-11-24T21:50:02.628Z,22.93
2017-11-24T21:52:30.115Z,21.27
2017-11-24T21:54:57.580Z,24.57
2017-11-24T21:57:25.070Z,23.90
2017-11-24T21:59:54.226Z,22.87
2017-11-24T22:02:21.706Z,21.43
2017-11-24T22:04:49.209Z,21.73
2017-11-24T22:07:16.703Z,21.20
2017-11-24T22:09:44.171Z,21.63
2017-11-24T22:12:11.631Z,23.53
2017-11-24T22:14:39.106Z,22.60
2017-11-24T22:17:06.606Z,22.47
2017-11-24T22:19:34.083Z,22.50
2017-11-24T22:22:01.577Z,25.40
2017-11-24T22:24:29.834Z,24.70
2017-11-24T22:26:58.148Z,20.07
2017-11-24T22:29:26.422Z,25.17
2017-11-24T22:31:54.190Z,23.58
2017-11-24T22:34:21.657Z,21.83
2017-11-24T22:36:49.139Z,23.33
2017-11-24T22:39:16.639Z,23.40
2017-11-24T22:41:44.101Z,22.13
2017-11-24T22:44:11.607Z,24.03
2017-11-24T22:46:39.102Z,25.67
2017-11-24T22:49:06.560Z,26.10
2017-11-24T22:51:34.060Z,23.70
2017-11-24T22:54:01.531Z,23.80
2017-11-24T22:56:29.074Z,24.47
2017-11-24T22:58:57.314Z,23.10
2017-11-24T23:01:24.771Z,26.07
2017-11-24T23:03:52.262Z,22.13
2017-11-24T23:06:20.503Z,24.20
2017-11-24T23:08:47.985Z,22.10
2017-11-24T23:11:15.454Z,20.73
2017-11-24T23:13:43.679Z,22.50
2017-11-24T23:16:11.180Z,23.33
2017-11-24T23:18:38.654Z,23.07
2017-11-24T23:21:06.881Z,23.47
2017-11-24T23:23:34.359Z,22.83
2017-11-24T23:26:01.874Z,23.03
2017-11-24T23:28:29.338Z,22.90
2017-11-24T23:30:56.815Z,23.33
2017-11-24T23:33:25.232Z,21.97
2017-11-24T23:35:53.486Z,22.33
2017-11-24T23:38:20.982Z,21.23
2017-11-24T23:40:49.236Z,20.80
2017-11-24T23:43:17.578Z,21.33
2017-11-24T23:45:45.049Z,21.87
2017-11-24T23:48:12.528Z,20.70
2017-11-24T23:50:40.007Z,20.97
2017-11-24T23:53:07.493Z,19.80
2017-11-24T23:55:35.053Z,19.93
2017-11-24T23:58:02.536Z,18.57
